Time;durP1;ratioP1;P1;durP2;ratioP2;P2;SDS_P1;SDS_P2;PMS_P1;PMS_P2;Temp;Humidity;BMP_temperature;BMP_pressure;BME280_temperature;BME280_humidity;BME280_pressure;Samples;Min_cycle;Max_cycle;Signal;HPM_P1;HPM_P2
2021/03/10 00:00:34;;;;;;;4.07;2.07;;;4.30;91.20;;;;;;4896171;29;20052;-77
2021/03/10 00:03:01;;;;;;;4.93;2.10;;;4.20;91.20;;;;;;4895270;29;20047;-71
2021/03/10 00:05:28;;;;;;;4.93;2.00;;;4.20;91.50;;;;;;4880589;29;20049;-76
2021/03/10 00:07:54;;;;;;;5.70;2.63;;;4.10;91.20;;;;;;4891390;29;20136;-76
2021/03/10 00:10:21;;;;;;;4.47;2.03;;;4.10;91.20;;;;;;4904921;29;20072;-76
2021/03/10 00:12:47;;;;;;;6.30;2.60;;;4.00;91.30;;;;;;4896872;29;20487;-76
2021/03/10 00:15:15;;;;;;;4.47;2.00;;;4.00;91.30;;;;;;4880759;29;20048;-76
2021/03/10 00:17:43;;;;;;;4.50;1.90;;;4.00;91.30;;;;;;4895715;29;20073;-77
2021/03/10 00:20:12;;;;;;;5.10;2.23;;;3.90;91.30;;;;;;4897004;29;20104;-76
2021/03/10 00:22:39;;;;;;;4.27;2.03;;;3.90;91.30;;;;;;4896902;29;20064;-77
2021/03/10 00:25:07;;;;;;;5.77;2.60;;;3.90;91.40;;;;;;4895181;29;20113;-75
2021/03/10 00:27:37;;;;;;;4.53;1.90;;;3.80;91.40;;;;;;4896251;29;20041;-74
2021/03/10 00:30:09;;;;;;;5.40;2.70;;;3.90;91.40;;;;;;4895967;29;20055;-78
2021/03/10 00:32:37;;;;;;;5.32;2.30;;;3.90;91.40;;;;;;4896250;29;20041;-75
2021/03/10 00:35:23;;;;;;;5.53;2.03;;;4.00;91.50;;;;;;4896963;29;20109;-75
2021/03/10 00:37:57;;;;;;;4.57;2.03;;;4.10;91.40;;;;;;4894135;29;20516;-78
2021/03/10 00:40:24;;;;;;;5.67;2.40;;;4.10;91.40;;;;;;4895730;29;20076;-77
2021/03/10 00:42:50;;;;;;;5.33;2.60;;;4.20;91.30;;;;;;4864953;29;20045;-76
2021/03/10 00:45:17;;;;;;;4.63;1.93;;;4.30;91.50;;;;;;4895910;29;20056;-74
2021/03/10 00:47:43;;;;;;;5.23;2.10;;;4.40;91.20;;;;;;4880007;29;20072;-72
2021/03/10 00:50:10;;;;;;;6.40;2.90;;;4.40;91.20;;;;;;4894805;29;20053;-71
2021/03/10 00:52:38;;;;;;;4.87;1.70;;;4.50;91.20;;;;;;4902791;29;20048;-71
2021/03/10 00:55:05;;;;;;;3.67;1.93;;;4.60;91.20;;;;;;4887892;29;20105;-71
2021/03/10 00:57:31;;;;;;;4.23;2.00;;;4.60;91.10;;;;;;4895203;29;20144;-73
2021/03/10 00:59:58;;;;;;;5.00;2.23;;;4.60;91.00;;;;;;4898162;29;20064;-71
2021/03/10 01:02:24;;;;;;;6.10;2.83;;;4.60;91.00;;;;;;4898821;29;20048;-71
2021/03/10 01:04:51;;;;;;;6.20;2.83;;;4.50;91.00;;;;;;4899629;29;20121;-71
2021/03/10 01:07:17;;;;;;;5.37;3.07;;;4.40;91.10;;;;;;4898422;29;20183;-72
2021/03/10 01:09:44;;;;;;;6.87;3.03;;;4.30;91.10;;;;;;4913380;29;20045;-72
2021/03/10 01:12:11;;;;;;;6.93;3.43;;;4.30;91.20;;;;;;4907936;29;20064;-71
2021/03/10 01:14:38;;;;;;;5.97;2.73;;;4.20;91.30;;;;;;4899659;29;20080;-75
2021/03/10 01:17:04;;;;;;;5.43;2.60;;;4.10;91.30;;;;;;4879422;29;20044;-75
2021/03/10 01:19:31;;;;;;;4.93;2.43;;;4.10;91.30;;;;;;4900614;29;20115;-75
2021/03/10 01:21:57;;;;;;;5.80;3.03;;;4.00;91.40;;;;;;4900143;29;20068;-75
2021/03/10 01:24:24;;;;;;;4.90;2.37;;;4.00;91.40;;;;;;4899030;29;20053;-71
2021/03/10 01:26:51;;;;;;;5.67;2.93;;;3.90;91.40;;;;;;4897835;29;20140;-71
2021/03/10 01:29:17;;;;;;;4.67;2.30;;;3.90;91.50;;;;;;4897916;29;20052;-71
2021/03/10 01:31:44;;;;;;;4.67;2.50;;;3.90;91.50;;;;;;4882148;29;20135;-71
2021/03/10 01:34:11;;;;;;;7.03;2.97;;;3.80;91.50;;;;;;4897711;29;20388;-72
2021/03/10 01:36:37;;;;;;;4.57;2.40;;;3.80;91.50;;;;;;4899156;29;20052;-71
2021/03/10 01:39:04;;;;;;;6.07;2.53;;;3.80;91.50;;;;;;4899184;29;20100;-71
2021/03/10 01:41:31;;;;;;;8.17;2.37;;;3.70;91.50;;;;;;4899026;29;20048;-71
2021/03/10 01:43:57;;;;;;;6.03;2.60;;;3.70;91.60;;;;;;4897699;29;20103;-71
2021/03/10 01:46:39;;;;;;;5.57;3.00;;;3.70;91.50;;;;;;4897144;29;20461;-72
2021/03/10 01:49:07;;;;;;;7.40;3.10;;;3.60;91.50;;;;;;4898127;29;20049;-71
2021/03/10 01:51:34;;;;;;;6.17;3.27;;;3.60;91.50;;;;;;4890060;29;20167;-71
2021/03/10 01:54:01;;;;;;;7.40;2.83;;;3.50;91.50;;;;;;4897045;29;20493;-71
2021/03/10 01:56:28;;;;;;;6.47;2.93;;;3.50;91.60;;;;;;4897577;29;20056;-71
2021/03/10 01:58:55;;;;;;;7.03;3.53;;;3.50;91.60;;;;;;4881825;29;20052;-71
2021/03/10 02:01:22;;;;;;;5.80;2.50;;;3.50;91.60;;;;;;4897432;29;20051;-71
2021/03/10 02:03:48;;;;;;;5.67;2.40;;;3.50;91.60;;;;;;4897027;29;20032;-71
2021/03/10 02:06:51;;;;;;;5.70;2.53;;;3.40;91.60;;;;;;4897934;29;20045;-75
2021/03/10 02:09:27;;;;;;;5.20;2.40;;;3.40;91.60;;;;;;4898343;29;20059;-76
2021/03/10 02:12:03;;;;;;;4.70;2.13;;;3.40;91.60;;;;;;4898528;29;20053;-75
2021/03/10 02:14:47;;;;;;;6.33;2.50;;;3.40;91.60;;;;;;4899883;29;20041;-75
2021/03/10 02:17:17;;;;;;;5.23;2.47;;;3.40;91.60;;;;;;4899365;29;20557;-75
2021/03/10 02:20:02;;;;;;;5.07;2.53;;;3.30;91.60;;;;;;4899344;29;20056;-75
2021/03/10 02:22:48;;;;;;;5.87;2.57;;;3.30;91.60;;;;;;4897072;29;20516;-75
2021/03/10 02:25:38;;;;;;;5.83;2.87;;;3.30;91.70;;;;;;4913843;29;20047;-76
2021/03/10 02:28:06;;;;;;;5.07;2.57;;;3.30;91.70;;;;;;4863218;29;20053;-76
2021/03/10 02:30:42;;;;;;;5.07;2.27;;;3.20;91.70;;;;;;4898380;29;20124;-75
2021/03/10 02:33:16;;;;;;;4.77;2.23;;;3.20;91.70;;;;;;4913581;29;20041;-75
2021/03/10 02:35:45;;;;;;;5.77;2.83;;;3.20;91.70;;;;;;4899161;29;20493;-75
2021/03/10 02:38:17;;;;;;;3.67;2.00;;;3.20;91.70;;;;;;4899498;29;20040;-75
2021/03/10 02:40:46;;;;;;;4.00;2.15;;;3.20;91.70;;;;;;4897748;29;20054;-75
2021/03/10 02:43:14;;;;;;;5.83;2.80;;;3.20;91.70;;;;;;4898457;29;20068;-75
2021/03/10 02:45:42;;;;;;;5.27;2.47;;;3.10;91.70;;;;;;4896775;29;20036;-75
2021/03/10 02:48:10;;;;;;;5.73;2.50;;;3.10;91.70;;;;;;4893293;29;20037;-75
2021/03/10 02:50:38;;;;;;;4.63;2.17;;;3.10;91.70;;;;;;4893230;29;20128;-75
2021/03/10 02:53:08;;;;;;;5.67;2.60;;;3.20;91.70;;;;;;4895628;29;20048;-75
2021/03/10 02:55:43;;;;;;;3.93;2.00;;;3.20;91.70;;;;;;4898640;29;20127;-75
2021/03/10 02:58:11;;;;;;;5.60;2.57;;;3.20;91.80;;;;;;4897086;29;20512;-75
2021/03/10 03:00:39;;;;;;;5.63;2.53;;;3.20;91.70;;;;;;4912965;29;20083;-75
2021/03/10 03:03:06;;;;;;;4.63;2.30;;;3.30;91.70;;;;;;4898683;29;20048;-75
2021/03/10 03:05:34;;;;;;;4.53;2.00;;;3.30;91.70;;;;;;4897927;29;20085;-75
2021/03/10 03:08:02;;;;;;;5.80;2.77;;;3.30;91.70;;;;;;4895012;29;20040;-75
2021/03/10 03:10:37;;;;;;;6.73;2.57;;;3.40;91.70;;;;;;4898930;29;20041;-76
2021/03/10 03:13:08;;;;;;;4.90;2.73;;;3.40;91.60;;;;;;4897775;29;20051;-71
2021/03/10 03:15:35;;;;;;;6.53;2.67;;;3.40;91.60;;;;;;4895900;29;20417;-71
2021/03/10 03:18:03;;;;;;;7.03;3.37;;;3.40;91.60;;;;;;4896708;29;20113;-72
2021/03/10 03:20:29;;;;;;;5.43;2.50;;;3.50;91.60;;;;;;4880397;29;20564;-72
2021/03/10 03:22:59;;;;;;;5.90;3.33;;;3.50;91.60;;;;;;4897245;29;20084;-71
2021/03/10 03:25:28;;;;;;;6.87;2.87;;;3.50;91.60;;;;;;4895849;29;20040;-71
2021/03/10 03:27:57;;;;;;;7.83;3.30;;;3.50;91.60;;;;;;4896682;29;20108;-72
2021/03/10 03:30:25;;;;;;;6.43;3.40;;;3.60;91.60;;;;;;4911360;29;20112;-71
2021/03/10 03:32:54;;;;;;;6.30;2.67;;;3.70;91.60;;;;;;4894784;29;20048;-71
2021/03/10 03:35:22;;;;;;;5.57;2.57;;;3.70;91.60;;;;;;4890303;29;20144;-70
2021/03/10 03:37:51;;;;;;;6.93;3.20;;;3.70;91.50;;;;;;4875596;29;20063;-70
2021/03/10 03:40:20;;;;;;;4.93;2.30;;;3.70;91.50;;;;;;4896878;29;20520;-70
2021/03/10 03:42:51;;;;;;;5.55;2.20;;;3.80;91.50;;;;;;4895926;29;20072;-74
2021/03/10 03:45:20;;;;;;;4.70;2.17;;;3.80;91.50;;;;;;4897718;29;20040;-74
2021/03/10 03:47:51;;;;;;;4.40;2.20;;;3.90;91.50;;;;;;4896779;29;20048;-74
2021/03/10 03:50:19;;;;;;;4.37;1.93;;;3.90;91.40;;;;;;4896281;29;20049;-74
2021/03/10 03:52:46;;;;;;;5.73;2.80;;;4.00;91.40;;;;;;4898096;29;20068;-75
2021/03/10 03:55:14;;;;;;;7.37;3.13;;;4.00;91.40;;;;;;4881099;29;20497;-75
2021/03/10 03:57:41;;;;;;;7.07;2.90;;;4.00;91.40;;;;;;4897716;29;20096;-75
2021/03/10 04:00:16;;;;;;;6.80;2.87;;;4.00;91.40;;;;;;4897958;29;20048;-74
2021/03/10 04:02:43;;;;;;;7.73;3.40;;;4.10;91.40;;;;;;4898174;29;20118;-74
2021/03/10 04:05:10;;;;;;;6.17;3.17;;;4.10;91.50;;;;;;4910713;29;20041;-74
2021/03/10 04:07:57;;;;;;;5.93;2.83;;;4.10;91.50;;;;;;4897765;29;20125;-70
2021/03/10 04:10:35;;;;;;;6.97;3.00;;;4.10;91.40;;;;;;4895589;29;20481;-70
2021/03/10 04:13:02;;;;;;;6.63;3.47;;;4.10;91.40;;;;;;4896353;29;20037;-75
2021/03/10 04:15:31;;;;;;;7.47;3.60;;;4.20;91.50;;;;;;4897882;29;20051;-74
2021/03/10 04:17:59;;;;;;;6.07;3.27;;;4.20;91.50;;;;;;4896196;29;20080;-74
2021/03/10 04:20:26;;;;;;;7.33;3.43;;;4.20;91.50;;;;;;4896626;29;20434;-74
2021/03/10 04:22:53;;;;;;;7.10;3.87;;;4.20;91.50;;;;;;4898123;29;20041;-74
2021/03/10 04:25:20;;;;;;;6.07;3.60;;;4.20;91.40;;;;;;4897641;29;20063;-74
2021/03/10 04:27:47;;;;;;;7.97;3.97;;;4.20;91.40;;;;;;4896738;29;20039;-74
2021/03/10 04:30:14;;;;;;;7.43;3.50;;;4.20;91.40;;;;;;4896734;29;20104;-74
2021/03/10 04:32:41;;;;;;;5.17;2.83;;;4.20;91.40;;;;;;4899112;29;20104;-74
2021/03/10 04:35:09;;;;;;;7.93;3.83;;;4.30;91.40;;;;;;4900260;29;20101;-70
2021/03/10 04:37:36;;;;;;;6.97;2.90;;;4.30;91.40;;;;;;4900034;29;20489;-70
2021/03/10 04:40:05;;;;;;;6.83;3.13;;;4.30;91.40;;;;;;4888369;29;20083;-70
2021/03/10 04:42:31;;;;;;;6.30;3.40;;;4.30;91.40;;;;;;4895355;29;20120;-74
2021/03/10 04:44:58;;;;;;;7.50;3.87;;;4.20;91.40;;;;;;4899308;29;20096;-74
2021/03/10 04:47:24;;;;;;;5.80;2.70;;;4.20;91.40;;;;;;4898795;29;20606;-70
2021/03/10 04:49:51;;;;;;;5.97;3.50;;;4.20;91.50;;;;;;4886940;29;20052;-70
2021/03/10 04:52:21;;;;;;;6.40;3.00;;;4.20;91.50;;;;;;4867695;29;20128;-70
2021/03/10 04:54:47;;;;;;;6.50;3.17;;;4.20;91.50;;;;;;4895663;29;20522;-70
2021/03/10 04:57:14;;;;;;;6.20;3.27;;;4.30;91.50;;;;;;4897321;29;20087;-70
2021/03/10 04:59:40;;;;;;;5.53;2.80;;;4.30;91.50;;;;;;4881417;29;20206;-70
2021/03/10 05:02:07;;;;;;;6.30;3.13;;;4.40;91.50;;;;;;4897285;29;20120;-70
2021/03/10 05:04:35;;;;;;;5.87;3.07;;;4.40;91.40;;;;;;4896199;29;20043;-70
2021/03/10 05:07:02;;;;;;;5.60;2.87;;;4.40;91.40;;;;;;4897099;29;20123;-70
2021/03/10 05:09:29;;;;;;;6.37;2.93;;;4.40;91.40;;;;;;4894428;29;20049;-70
2021/03/10 05:11:55;;;;;;;7.57;3.80;;;4.50;91.40;;;;;;4893017;29;20416;-71
2021/03/10 05:14:22;;;;;;;7.43;3.23;;;4.40;91.40;;;;;;4895559;29;20041;-70
2021/03/10 05:16:48;;;;;;;6.77;3.20;;;4.50;91.40;;;;;;4896670;29;20172;-70
2021/03/10 05:19:15;;;;;;;7.70;3.90;;;4.50;91.40;;;;;;4894096;29;20051;-70
2021/03/10 05:21:42;;;;;;;5.83;3.33;;;4.50;91.40;;;;;;4896270;29;20040;-70
2021/03/10 05:24:09;;;;;;;6.43;3.13;;;4.50;91.40;;;;;;4897167;29;20040;-75
2021/03/10 05:26:39;;;;;;;6.00;3.20;;;4.50;91.40;;;;;;4898437;29;20485;-75
2021/03/10 05:29:06;;;;;;;6.63;3.23;;;4.50;91.40;;;;;;4898148;29;20398;-75
2021/03/10 05:31:33;;;;;;;6.40;3.37;;;4.40;91.40;;;;;;4882365;29;20052;-75
2021/03/10 05:34:00;;;;;;;8.00;4.00;;;4.40;91.40;;;;;;4899379;29;20063;-75
2021/03/10 05:36:27;;;;;;;7.83;3.63;;;4.40;91.50;;;;;;4898119;29;20055;-75
2021/03/10 05:39:12;;;;;;;6.97;4.00;;;4.40;91.50;;;;;;4896571;29;20041;-75
2021/03/10 05:41:40;;;;;;;6.30;3.10;;;4.40;91.60;;;;;;4899079;29;20040;-75
2021/03/10 05:44:07;;;;;;;7.80;3.60;;;4.40;91.50;;;;;;4896134;29;20057;-75
2021/03/10 05:46:35;;;;;;;6.77;3.53;;;4.40;91.50;;;;;;4889755;29;20489;-75
2021/03/10 05:49:02;;;;;;;4.27;2.23;;;4.40;91.50;;;;;;4859757;29;639718;-75
2021/03/10 05:51:29;;;;;;;5.17;2.60;;;4.40;91.50;;;;;;4897732;29;20044;-75
2021/03/10 05:53:59;;;;;;;5.30;2.70;;;4.40;91.50;;;;;;4893350;29;20078;-70
2021/03/10 05:56:26;;;;;;;4.97;2.50;;;4.40;91.50;;;;;;4897433;29;20480;-75
2021/03/10 05:59:01;;;;;;;5.07;2.63;;;4.40;91.50;;;;;;4913710;29;20060;-76
2021/03/10 06:01:29;;;;;;;6.10;3.07;;;4.50;91.50;;;;;;4898077;29;20051;-71
2021/03/10 06:03:58;;;;;;;5.70;2.90;;;4.50;91.50;;;;;;4895527;29;20036;-75
2021/03/10 06:06:25;;;;;;;5.30;2.80;;;4.50;91.50;;;;;;4899640;29;20508;-75
2021/03/10 06:08:52;;;;;;;6.63;2.87;;;4.60;91.50;;;;;;4899586;29;20073;-75
2021/03/10 06:11:26;;;;;;;6.10;3.00;;;4.60;91.50;;;;;;4896891;29;20056;-71
2021/03/10 06:13:54;;;;;;;6.77;3.13;;;4.60;91.50;;;;;;4887798;29;20157;-71
2021/03/10 06:16:23;;;;;;;5.57;2.50;;;4.60;91.50;;;;;;4912950;29;20048;-71
2021/03/10 06:19:00;;;;;;;5.20;2.80;;;4.60;91.50;;;;;;4897238;29;20044;-76
2021/03/10 06:21:27;;;;;;;5.43;2.73;;;4.60;91.50;;;;;;4898878;29;20041;-75
2021/03/10 06:24:03;;;;;;;5.03;2.57;;;4.60;91.50;;;;;;4888890;29;20037;-75
2021/03/10 06:26:35;;;;;;;5.77;3.13;;;4.60;91.50;;;;;;4898295;29;20049;-75
2021/03/10 06:29:14;;;;;;;8.37;3.53;;;4.60;91.60;;;;;;4898266;29;20525;-75
2021/03/10 06:31:42;;;;;;;6.03;3.03;;;4.60;91.60;;;;;;4897687;29;20041;-76
2021/03/10 06:34:14;;;;;;;7.90;3.60;;;4.60;91.60;;;;;;4897834;29;20052;-75
2021/03/10 06:36:49;;;;;;;7.47;4.10;;;4.60;91.50;;;;;;4897163;29;20497;-75
2021/03/10 06:39:28;;;;;;;8.77;4.43;;;4.60;91.60;;;;;;4898641;29;20064;-75
2021/03/10 06:41:55;;;;;;;7.77;4.23;;;4.60;91.50;;;;;;4892204;29;20045;-75
2021/03/10 06:44:27;;;;;;;6.60;3.77;;;4.70;91.60;;;;;;4896948;29;20454;-75
2021/03/10 06:46:58;;;;;;;6.20;3.50;;;4.70;91.60;;;;;;4896880;29;20516;-75
2021/03/10 06:49:29;;;;;;;7.17;3.77;;;4.70;91.60;;;;;;4897033;29;20505;-75
2021/03/10 06:51:57;;;;;;;6.80;3.87;;;4.70;91.60;;;;;;4894746;29;20079;-70
2021/03/10 06:54:25;;;;;;;6.60;3.50;;;4.70;91.70;;;;;;4895938;29;20049;-70
2021/03/10 06:57:01;;;;;;;7.80;3.87;;;4.80;91.60;;;;;;4896209;29;20056;-70
2021/03/10 06:59:48;;;;;;;7.10;3.67;;;4.80;91.60;;;;;;4895248;29;20076;-70
2021/03/10 07:02:17;;;;;;;8.00;3.83;;;4.80;91.60;;;;;;4911639;29;20489;-70
2021/03/10 07:04:55;;;;;;;7.67;4.00;;;4.80;91.60;;;;;;4895547;29;20044;-70
2021/03/10 07:07:22;;;;;;;7.03;3.63;;;4.90;91.60;;;;;;4889520;29;20041;-70
2021/03/10 07:09:49;;;;;;;6.70;3.13;;;4.90;91.70;;;;;;4888501;29;20048;-71
2021/03/10 07:12:18;;;;;;;8.50;4.03;;;4.90;91.70;;;;;;4889835;29;20520;-71
2021/03/10 07:14:46;;;;;;;8.23;3.97;;;5.00;91.70;;;;;;4897347;29;20048;-71
2021/03/10 07:17:25;;;;;;;6.87;3.67;;;5.00;91.70;;;;;;4910649;29;20568;-70
2021/03/10 07:19:52;;;;;;;7.27;3.60;;;5.00;91.70;;;;;;4894259;29;20044;-70
2021/03/10 07:22:33;;;;;;;7.57;3.97;;;5.10;91.70;;;;;;4895438;29;20442;-74
2021/03/10 07:25:30;;;;;;;6.97;3.40;;;5.10;91.60;;;;;;4897821;29;20072;-75
2021/03/10 07:28:14;;;;;;;5.47;3.07;;;5.20;91.60;;;;;;4897529;29;20064;-75
2021/03/10 07:30:46;;;;;;;5.83;3.00;;;5.20;91.60;;;;;;4895867;29;20377;-75
2021/03/10 07:33:19;;;;;;;6.85;3.33;;;5.20;91.60;;;;;;4895907;29;20044;-70
2021/03/10 07:36:15;;;;;;;6.25;3.10;;;5.30;91.90;;;;;;4895537;29;20461;-71
2021/03/10 07:38:42;;;;;;;5.83;3.37;;;5.30;91.60;;;;;;4885647;29;20063;-71
2021/03/10 07:41:09;;;;;;;7.53;3.30;;;5.40;91.60;;;;;;4907636;29;20041;-71
2021/03/10 07:43:42;;;;;;;6.63;3.47;;;5.40;91.60;;;;;;4886202;29;20120;-71
2021/03/10 07:46:34;;;;;;;8.43;4.75;;;5.50;91.60;;;;;;4892814;29;20139;-71
2021/03/10 07:49:15;;;;;;;8.95;4.28;;;5.50;91.50;;;;;;4880166;29;20136;-70
2021/03/10 07:51:41;;;;;;;11.23;5.00;;;5.60;91.60;;;;;;4888724;29;20068;-70
2021/03/10 07:54:23;;;;;;;11.20;5.50;;;5.60;91.60;;;;;;4879576;29;20048;-70
2021/03/10 07:56:50;;;;;;;12.97;6.30;;;5.60;91.80;;;;;;4909064;29;20063;-70
2021/03/10 07:59:22;;;;;;;12.23;6.90;;;5.70;91.60;;;;;;4896927;29;20040;-75
2021/03/10 08:02:01;;;;;;;21.05;12.02;;;5.70;91.60;;;;;;4896340;29;20588;-75
2021/03/10 08:04:28;;;;;;;26.10;14.73;;;5.80;91.60;;;;;;4890955;29;20045;-75
2021/03/10 08:06:57;;;;;;;25.13;12.27;;;5.80;91.50;;;;;;4894022;29;20463;-76
2021/03/10 08:09:25;;;;;;;24.63;11.93;;;5.80;91.50;;;;;;4896464;29;20045;-76
2021/03/10 08:12:11;;;;;;;19.53;10.23;;;5.90;91.60;;;;;;4896009;29;20478;-70
2021/03/10 08:14:48;;;;;;;20.73;12.30;;;6.00;91.60;;;;;;4879474;29;20044;-70
2021/03/10 08:17:23;;;;;;;19.33;10.80;;;6.00;91.60;;;;;;4895317;29;20044;-70
2021/03/10 08:19:54;;;;;;;23.00;12.63;;;6.10;91.60;;;;;;4897126;29;20049;-74
2021/03/10 08:22:26;;;;;;;26.67;13.53;;;6.10;91.50;;;;;;4880427;29;20036;-76
2021/03/10 08:24:53;;;;;;;24.37;13.27;;;6.10;91.50;;;;;;4896552;29;20040;-77
2021/03/10 08:27:38;;;;;;;20.57;12.83;;;6.20;91.50;;;;;;4897431;29;20064;-75
2021/03/10 08:30:12;;;;;;;18.73;10.73;;;6.30;91.50;;;;;;4896379;29;20374;-75
2021/03/10 08:32:39;;;;;;;24.20;13.33;;;6.30;91.50;;;;;;4892989;29;20045;-71
2021/03/10 08:35:20;;;;;;;21.70;11.73;;;6.40;91.50;;;;;;4888370;29;20112;-71
2021/03/10 08:37:56;;;;;;;22.23;12.23;;;6.40;91.50;;;;;;4891606;29;20049;-71
2021/03/10 08:40:27;;;;;;;22.47;11.83;;;6.50;91.50;;;;;;4880026;29;20077;-71
2021/03/10 08:42:57;;;;;;;22.50;13.53;;;6.50;91.50;;;;;;4880498;29;20479;-74
2021/03/10 08:45:30;;;;;;;22.57;12.53;;;6.50;91.50;;;;;;4881209;29;20052;-74
2021/03/10 08:48:08;;;;;;;33.08;16.20;;;6.60;91.50;;;;;;4897599;29;20052;-70
2021/03/10 08:50:42;;;;;;;32.17;19.23;;;6.60;91.40;;;;;;4895395;29;20097;-70
2021/03/10 08:53:14;;;;;;;34.33;19.55;;;6.60;91.40;;;;;;4910895;29;20048;-75
2021/03/10 08:55:46;;;;;;;37.73;20.53;;;6.60;91.30;;;;;;4895976;29;20048;-76
2021/03/10 08:58:16;;;;;;;37.67;19.53;;;6.70;91.40;;;;;;4892788;29;20076;-75
2021/03/10 09:00:45;;;;;;;33.67;18.43;;;6.70;91.40;;;;;;4887732;29;20077;-76
2021/03/10 09:03:19;;;;;;;37.27;20.03;;;6.80;91.40;;;;;;4892131;29;20041;-74
2021/03/10 09:06:00;;;;;;;41.03;21.07;;;6.80;91.40;;;;;;4883253;29;20044;-70
2021/03/10 09:08:28;;;;;;;44.17;23.83;;;6.80;91.30;;;;;;4896005;29;20075;-70
2021/03/10 09:11:02;;;;;;;42.03;23.57;;;6.90;91.30;;;;;;4893280;29;20036;-70
2021/03/10 09:13:44;;;;;;;39.50;21.17;;;6.90;91.30;;;;;;4869597;29;20532;-70
2021/03/10 09:16:16;;;;;;;36.75;21.50;;;6.90;91.60;;;;;;4889522;29;20062;-71
2021/03/10 09:18:59;;;;;;;32.90;18.93;;;6.90;91.30;;;;;;4880983;29;20052;-73
2021/03/10 09:21:43;;;;;;;39.73;21.97;;;7.00;91.30;;;;;;4896777;29;20115;-75
2021/03/10 09:24:23;;;;;;;34.07;20.50;;;7.00;91.20;;;;;;4872179;29;20557;-70
2021/03/10 09:26:51;;;;;;;32.60;19.97;;;7.10;91.20;;;;;;4868590;29;20060;-70
2021/03/10 09:29:20;;;;;;;42.73;23.70;;;7.10;91.20;;;;;;4871461;29;20048;-70
2021/03/10 09:31:55;;;;;;;42.37;23.67;;;7.20;91.10;;;;;;4882742;29;20044;-75
2021/03/10 09:34:35;;;;;;;37.73;20.80;;;7.20;91.00;;;;;;4893365;29;20609;-76
2021/03/10 09:37:13;;;;;;;36.07;22.27;;;7.20;91.10;;;;;;4872915;29;20061;-70
2021/03/10 09:39:49;;;;;;;36.60;21.03;;;7.30;91.10;;;;;;4912988;29;20524;-70
2021/03/10 09:42:28;;;;;;;33.97;17.13;;;7.30;91.00;;;;;;4896334;29;20052;-70
2021/03/10 09:45:01;;;;;;;29.23;16.50;;;7.40;91.10;;;;;;4880508;29;20040;-70
2021/03/10 09:47:48;;;;;;;30.07;18.13;;;7.50;91.10;;;;;;4897131;29;20048;-70
2021/03/10 09:50:34;;;;;;;31.45;18.88;;;7.50;91.00;;;;;;4882843;29;20068;-70
2021/03/10 09:53:21;;;;;;;29.60;17.47;;;7.60;91.00;;;;;;4886904;29;20148;-71
2021/03/10 09:56:04;;;;;;;26.73;15.13;;;7.60;91.00;;;;;;4891190;29;20052;-70
2021/03/10 09:58:33;;;;;;;26.97;16.13;;;7.60;91.00;;;;;;4889792;29;20161;-70
2021/03/10 10:01:00;;;;;;;26.70;15.73;;;7.60;91.00;;;;;;4897507;29;20485;-70
2021/03/10 10:03:29;;;;;;;25.60;16.20;;;7.70;91.00;;;;;;4897487;29;20400;-70
2021/03/10 10:06:08;;;;;;;27.77;16.33;;;7.70;90.90;;;;;;4897421;29;20058;-70
2021/03/10 10:08:40;;;;;;;26.08;15.48;;;7.80;90.90;;;;;;4897086;29;20067;-70
2021/03/10 10:11:07;;;;;;;26.42;14.43;;;7.80;90.90;;;;;;4866650;29;20556;-70
2021/03/10 10:13:44;;;;;;;24.27;14.35;;;7.90;90.90;;;;;;4882690;29;20469;-70
2021/03/10 10:16:11;;;;;;;22.15;13.82;;;7.90;90.90;;;;;;4912911;29;20048;-70
2021/03/10 10:18:44;;;;;;;26.90;15.68;;;8.00;90.80;;;;;;4899296;29;20120;-74
2021/03/10 10:21:12;;;;;;;27.13;14.55;;;8.00;90.80;;;;;;4898218;29;20037;-75
2021/03/10 10:23:42;;;;;;;26.58;15.52;;;8.00;90.80;;;;;;4898213;29;20505;-75
2021/03/10 10:26:13;;;;;;;29.67;17.33;;;8.00;90.70;;;;;;4899385;29;20044;-74
2021/03/10 10:28:43;;;;;;;28.20;16.52;;;8.00;90.60;;;;;;4898330;29;20037;-75
2021/03/10 10:31:34;;;;;;;29.50;17.67;;;8.00;90.70;;;;;;4886151;29;20052;-74
2021/03/10 10:34:02;;;;;;;26.80;15.57;;;8.00;90.60;;;;;;4882110;29;20048;-76
2021/03/10 10:36:29;;;;;;;27.00;15.20;;;8.10;90.60;;;;;;4899028;29;20068;-74
2021/03/10 10:39:16;;;;;;;26.83;15.05;;;8.20;90.70;;;;;;4897679;29;20084;-74
2021/03/10 10:41:42;;;;;;;27.48;15.48;;;8.20;90.60;;;;;;4881713;29;20457;-74
2021/03/10 10:44:09;;;;;;;22.67;14.05;;;8.30;90.60;;;;;;4897936;29;20075;-74
2021/03/10 10:46:43;;;;;;;22.33;13.95;;;8.40;90.60;;;;;;4897150;29;20044;-70
2021/03/10 10:49:13;;;;;;;26.25;14.35;;;8.50;90.50;;;;;;4896002;29;20049;-70
2021/03/10 10:51:44;;;;;;;33.13;18.52;;;8.60;90.50;;;;;;4882341;29;20132;-73
2021/03/10 10:54:26;;;;;;;35.08;19.00;;;8.60;90.10;;;;;;4896525;29;20048;-76
2021/03/10 10:56:54;;;;;;;36.90;19.92;;;8.60;89.80;;;;;;4880838;29;20053;-75
2021/03/10 10:59:43;;;;;;;31.83;19.20;;;8.60;89.60;;;;;;4897038;29;20048;-73
2021/03/10 11:02:29;;;;;;;31.00;18.58;;;8.60;89.60;;;;;;4872607;29;20044;-75
2021/03/10 11:05:07;;;;;;;40.47;21.05;;;8.70;89.50;;;;;;4883654;29;20048;-74
2021/03/10 11:07:35;;;;;;;30.13;18.95;;;8.60;88.90;;;;;;4882571;29;20401;-74
2021/03/10 11:10:06;;;;;;;31.65;19.35;;;8.60;89.20;;;;;;4899011;29;20037;-74
2021/03/10 11:12:37;;;;;;;30.98;18.67;;;8.70;88.90;;;;;;4882951;29;20075;-74
2021/03/10 11:15:07;;;;;;;32.55;18.38;;;8.60;89.20;;;;;;4882020;29;20501;-74
2021/03/10 11:17:52;;;;;;;27.75;16.92;;;8.60;88.80;;;;;;4884159;29;20806;-75
2021/03/10 11:20:19;;;;;;;24.05;14.05;;;8.70;89.00;;;;;;4881835;29;20489;-75
2021/03/10 11:22:46;;;;;;;28.35;17.38;;;8.70;89.20;;;;;;4898336;29;20040;-76
2021/03/10 11:25:15;;;;;;;23.88;14.70;;;8.70;88.50;;;;;;4882183;29;20052;-75
2021/03/10 11:27:43;;;;;;;22.83;14.43;;;8.70;88.90;;;;;;4881255;29;20044;-76
2021/03/10 11:30:16;;;;;;;23.00;15.10;;;8.80;89.00;;;;;;4896955;29;20064;-75
2021/03/10 11:32:44;;;;;;;24.20;13.65;;;8.80;88.90;;;;;;4897718;29;20045;-75
2021/03/10 11:35:15;;;;;;;21.67;12.88;;;8.80;88.40;;;;;;4897552;29;20520;-74
2021/03/10 11:37:42;;;;;;;22.90;12.60;;;8.80;88.50;;;;;;4881698;29;20054;-74
2021/03/10 11:40:10;;;;;;;23.25;13.52;;;8.90;88.30;;;;;;4905993;29;20450;-75
2021/03/10 11:42:41;;;;;;;22.60;14.10;;;9.00;88.10;;;;;;4896098;29;20505;-76
2021/03/10 11:45:09;;;;;;;23.75;14.70;;;9.00;87.90;;;;;;4896729;29;20105;-74
2021/03/10 11:47:36;;;;;;;20.65;13.65;;;9.00;87.30;;;;;;4896063;29;20045;-75
2021/03/10 11:50:04;;;;;;;19.45;12.02;;;9.00;87.40;;;;;;4894546;29;20493;-74
2021/03/10 11:52:30;;;;;;;18.20;11.07;;;9.10;87.60;;;;;;4897005;29;20048;-75
2021/03/10 11:54:58;;;;;;;19.38;10.98;;;9.20;87.70;;;;;;4894806;29;20048;-75
2021/03/10 11:57:24;;;;;;;21.42;14.25;;;9.20;88.10;;;;;;4896312;29;20100;-74
2021/03/10 11:59:51;;;;;;;18.42;12.55;;;9.20;86.60;;;;;;4895626;29;20489;-75
2021/03/10 12:02:22;;;;;;;22.45;13.07;;;9.20;86.80;;;;;;4883770;29;20136;-74
2021/03/10 12:04:55;;;;;;;;;;;9.20;86.10;;;;;;4877545;29;20067;-75
2021/03/10 12:07:23;;;;;;;19.25;11.30;;;9.20;86.70;;;;;;4891099;29;19923;-75
2021/03/10 12:09:51;;;;;;;19.63;10.77;;;9.30;87.00;;;;;;4867124;29;20092;-75
2021/03/10 12:12:19;;;;;;;18.50;10.73;;;9.30;86.90;;;;;;4893226;29;20689;-77
2021/03/10 12:14:54;;;;;;;19.13;11.10;;;9.30;87.00;;;;;;4887959;29;20052;-74
2021/03/10 12:17:21;;;;;;;20.00;12.45;;;9.40;86.40;;;;;;4893676;29;20048;-74
2021/03/10 12:19:48;;;;;;;17.63;10.98;;;9.40;85.60;;;;;;4892716;29;20127;-75
2021/03/10 12:22:15;;;;;;;17.52;11.38;;;9.50;85.90;;;;;;4893505;29;20115;-75
2021/03/10 12:24:46;;;;;;;16.65;10.27;;;9.60;86.10;;;;;;4880496;29;20088;-78
2021/03/10 12:27:23;;;;;;;15.85;9.95;;;9.70;86.10;;;;;;4877361;29;20489;-71
2021/03/10 12:29:54;;;;;;;17.40;10.80;;;9.70;85.70;;;;;;4892126;29;20029;-72
2021/03/10 12:32:26;;;;;;;17.83;10.45;;;9.80;85.60;;;;;;4876449;29;20048;-71
2021/03/10 12:35:00;;;;;;;16.92;11.10;;;9.90;85.80;;;;;;4878491;29;20059;-75
2021/03/10 12:37:26;;;;;;;19.70;12.45;;;10.00;84.90;;;;;;4895558;29;20405;-72
2021/03/10 12:40:00;;;;;;;18.55;11.68;;;10.10;84.40;;;;;;4873788;29;20056;-72
2021/03/10 12:42:31;;;;;;;14.02;9.00;;;10.20;84.50;;;;;;4879698;29;20109;-73
2021/03/10 12:45:08;;;;;;;15.85;10.10;;;10.20;84.70;;;;;;4895730;29;20058;-77
2021/03/10 12:47:37;;;;;;;19.55;12.32;;;10.30;84.60;;;;;;4894078;29;20280;-71
2021/03/10 12:50:19;;;;;;;18.77;12.05;;;10.40;83.20;;;;;;4897314;29;20060;-76
2021/03/10 12:52:48;;;;;;;17.05;10.70;;;10.40;83.60;;;;;;4898778;29;20496;-77
2021/03/10 12:55:17;;;;;;;17.48;11.25;;;10.40;83.40;;;;;;4899824;29;20055;-77
2021/03/10 12:57:44;;;;;;;17.23;10.48;;;10.60;83.50;;;;;;4901056;29;20068;-75
2021/03/10 13:00:15;;;;;;;15.88;10.38;;;10.60;83.50;;;;;;4898332;29;20139;-72
2021/03/10 13:02:49;;;;;;;18.50;11.18;;;10.70;82.80;;;;;;4899540;29;20100;-71
2021/03/10 13:05:16;;;;;;;18.15;11.38;;;10.70;82.10;;;;;;4903880;29;20112;-70
2021/03/10 13:07:48;;;;;;;17.95;11.27;;;10.70;82.80;;;;;;4900959;29;20533;-74